createdAt,value
2017-09-24T00:00:08.148Z,17.43
2017-09-24T00:02:36.510Z,20.97
2017-09-24T00:05:04.080Z,16.73
2017-09-24T00:07:31.732Z,19.07
2017-09-24T00:09:59.300Z,16.77
2017-09-24T00:12:26.964Z,18.73
2017-09-24T00:14:54.532Z,17.70
2017-09-24T00:17:22.890Z,20.30
2017-09-24T00:19:50.569Z,15.33
2017-09-24T00:22:18.220Z,19.97
2017-09-24T00:24:45.788Z,22.15
2017-09-24T00:27:13.365Z,19.27
2017-09-24T00:29:41.721Z,20.87
2017-09-24T00:32:09.292Z,16.93
2017-09-24T00:34:36.886Z,17.87
2017-09-24T00:37:04.459Z,16.03
2017-09-24T00:39:32.044Z,16.90
2017-09-24T00:41:59.607Z,18.60
2017-09-24T00:44:27.297Z,21.77
2017-09-24T00:46:54.864Z,20.50
2017-09-24T00:49:23.237Z,20.83
2017-09-24T00:51:51.596Z,19.07
2017-09-24T00:54:19.281Z,18.87
2017-09-24T00:56:47.658Z,25.17
2017-09-24T00:59:15.232Z,21.02
2017-09-24T01:01:43.700Z,19.40
2017-09-24T01:04:11.273Z,21.80
2017-09-24T01:06:39.643Z,24.73
2017-09-24T01:09:07.218Z,20.45
2017-09-24T01:11:35.565Z,23.33
2017-09-24T01:14:04.088Z,23.90
2017-09-24T01:16:31.724Z,18.20
2017-09-24T01:18:59.321Z,21.70
2017-09-24T01:21:27.106Z,21.67
2017-09-24T01:23:55.076Z,22.40
2017-09-24T01:26:22.660Z,19.87
2017-09-24T01:28:50.252Z,18.70
2017-09-24T01:31:18.593Z,19.90
2017-09-24T01:33:46.275Z,25.33
2017-09-24T01:36:14.613Z,22.48
2017-09-24T01:38:42.219Z,23.50
2017-09-24T01:41:09.816Z,20.43
2017-09-24T01:43:37.392Z,24.67
2017-09-24T01:46:04.988Z,22.97
2017-09-24T01:48:32.668Z,21.73
2017-09-24T01:51:01.965Z,23.33
2017-09-24T01:53:29.627Z,24.27
2017-09-24T01:55:57.292Z,21.40
2017-09-24T01:58:25.630Z,22.27
2017-09-24T02:00:53.204Z,20.47
2017-09-24T02:03:20.796Z,19.25
2017-09-24T02:05:48.455Z,22.80
2017-09-24T02:08:16.056Z,21.17
2017-09-24T02:10:43.632Z,18.67
2017-09-24T02:13:11.240Z,22.00
2017-09-24T02:15:40.315Z,23.40
2017-09-24T02:18:07.913Z,20.50
2017-09-24T02:20:36.375Z,20.03
2017-09-24T02:23:04.044Z,19.50
2017-09-24T02:25:31.636Z,17.13
2017-09-24T02:27:59.266Z,24.17
2017-09-24T02:30:28.772Z,21.43
2017-09-24T02:32:56.423Z,22.37
2017-09-24T02:35:23.996Z,21.87
2017-09-24T02:37:51.593Z,18.27
2017-09-24T02:40:19.168Z,19.97
2017-09-24T02:42:46.760Z,17.20
2017-09-24T02:45:14.331Z,21.55
2017-09-24T02:47:41.921Z,20.90
2017-09-24T02:50:10.259Z,21.73
2017-09-24T02:52:37.868Z,19.43
2017-09-24T02:55:05.441Z,19.83
2017-09-24T02:57:33.003Z,18.27
2017-09-24T03:00:02.872Z,21.17
2017-09-24T03:02:30.572Z,16.63
2017-09-24T03:04:58.143Z,21.47
2017-09-24T03:07:25.713Z,20.13
2017-09-24T03:09:53.308Z,15.47
2017-09-24T03:12:20.972Z,17.70
2017-09-24T03:14:48.539Z,21.93
2017-09-24T03:17:16.142Z,20.75
2017-09-24T03:19:43.763Z,17.33
2017-09-24T03:22:11.352Z,19.17
2017-09-24T03:24:39.704Z,19.70
2017-09-24T03:27:07.472Z,23.33
2017-09-24T03:29:35.049Z,19.23
2017-09-24T03:32:04.813Z,15.88
2017-09-24T03:34:32.401Z,16.07
2017-09-24T03:36:59.964Z,14.70
2017-09-24T03:39:27.619Z,18.93
2017-09-24T03:41:55.288Z,17.40
2017-09-24T03:44:22.876Z,20.35
2017-09-24T03:46:51.203Z,16.53
2017-09-24T03:49:18.896Z,14.50
2017-09-24T03:51:46.483Z,16.80
2017-09-24T03:54:14.043Z,17.43
2017-09-24T03:56:41.642Z,18.90
2017-09-24T03:59:09.213Z,18.10
2017-09-24T04:01:36.808Z,21.00
2017-09-24T04:04:05.177Z,17.27
2017-09-24T04:06:32.772Z,20.43
2017-09-24T04:09:01.274Z,18.73
2017-09-24T04:11:28.883Z,21.03
2017-09-24T04:13:56.644Z,21.40
2017-09-24T04:16:24.249Z,22.23
2017-09-24T04:18:51.820Z,17.10
2017-09-24T04:21:19.412Z,22.17
2017-09-24T04:23:46.979Z,20.17
2017-09-24T04:26:14.570Z,24.35
2017-09-24T04:28:42.927Z,19.43
2017-09-24T04:31:12.029Z,18.23
2017-09-24T04:33:39.596Z,16.30
2017-09-24T04:36:07.961Z,22.08
2017-09-24T04:38:35.532Z,17.87
2017-09-24T04:41:04.820Z,17.70
2017-09-24T04:43:32.392Z,25.33
2017-09-24T04:45:59.987Z,20.17
2017-09-24T04:48:27.556Z,18.17
2017-09-24T04:50:55.172Z,19.00
2017-09-24T04:53:22.740Z,17.63
2017-09-24T04:55:51.104Z,16.17
2017-09-24T04:58:20.204Z,16.30
2017-09-24T05:00:49.283Z,20.10
2017-09-24T05:03:16.959Z,15.00
2017-09-24T05:05:44.537Z,19.30
2017-09-24T05:08:12.900Z,17.53
2017-09-24T05:10:40.559Z,14.63
2017-09-24T05:13:08.153Z,17.06
2017-09-24T05:15:36.500Z,16.33
2017-09-24T05:18:04.083Z,13.03
2017-09-24T05:20:32.448Z,18.80
2017-09-24T05:23:01.731Z,17.57
2017-09-24T05:25:30.120Z,18.30
2017-09-24T05:27:57.712Z,14.07
2017-09-24T05:30:26.063Z,17.20
2017-09-24T05:32:54.447Z,16.23
2017-09-24T05:35:22.016Z,17.70
2017-09-24T05:37:50.387Z,17.30
2017-09-24T05:40:18.719Z,17.87
2017-09-24T05:42:47.510Z,20.30
2017-09-24T05:45:15.108Z,16.70
2017-09-24T05:47:42.700Z,16.57
2017-09-24T05:50:11.033Z,16.70
2017-09-24T05:52:38.649Z,23.47
2017-09-24T05:55:06.277Z,18.93
2017-09-24T05:57:33.839Z,18.63
2017-09-24T06:00:03.748Z,17.37
2017-09-24T06:02:31.317Z,16.63
2017-09-24T06:04:59.676Z,20.30
2017-09-24T06:07:27.240Z,16.20
2017-09-24T06:09:54.832Z,17.15
2017-09-24T06:12:23.168Z,17.60
2017-09-24T06:14:50.764Z,26.60
2017-09-24T06:17:19.100Z,16.73
2017-09-24T06:19:46.692Z,22.03
2017-09-24T06:22:14.289Z,19.50
2017-09-24T06:24:41.911Z,19.50
2017-09-24T06:27:09.485Z,17.13
2017-09-24T06:29:37.840Z,15.00
2017-09-24T06:32:05.418Z,17.53
2017-09-24T06:34:33.014Z,19.73
2017-09-24T06:37:02.763Z,18.77
2017-09-24T06:39:30.357Z,16.77
2017-09-24T06:41:58.687Z,19.23
2017-09-24T06:44:26.280Z,23.03
2017-09-24T06:46:53.852Z,18.00
2017-09-24T06:49:21.433Z,19.57
2017-09-24T06:51:49.793Z,18.03
2017-09-24T06:54:17.371Z,14.57
2017-09-24T06:56:45.832Z,18.87
2017-09-24T06:59:13.492Z,20.73
2017-09-24T07:01:41.096Z,22.37
2017-09-24T07:04:08.670Z,33.27
2017-09-24T07:06:36.276Z,37.57
2017-09-24T07:09:05.385Z,33.53
2017-09-24T07:11:33.744Z,33.60
2017-09-24T07:14:03.663Z,39.13
2017-09-24T07:16:31.255Z,31.80
2017-09-24T07:18:59.592Z,30.63
2017-09-24T07:21:27.276Z,31.30
2017-09-24T07:23:54.847Z,31.87
2017-09-24T07:26:23.304Z,29.80
2017-09-24T07:28:50.872Z,31.12
2017-09-24T07:31:18.444Z,34.13
2017-09-24T07:33:46.911Z,31.67
2017-09-24T07:36:14.484Z,25.70
2017-09-24T07:38:42.848Z,23.00
2017-09-24T07:41:10.420Z,27.57
2017-09-24T07:43:38.020Z,26.85
2017-09-24T07:46:05.592Z,26.13
2017-09-24T07:48:33.184Z,24.17
2017-09-24T07:51:02.681Z,26.60
2017-09-24T07:53:30.284Z,24.07
2017-09-24T07:55:58.628Z,27.33
2017-09-24T07:58:26.224Z,23.60
2017-09-24T08:00:54.561Z,25.47
2017-09-24T08:03:22.165Z,29.40
2017-09-24T08:05:50.507Z,23.97
2017-09-24T08:08:18.105Z,24.65
2017-09-24T08:10:46.439Z,24.87
2017-09-24T08:13:14.052Z,24.53
2017-09-24T08:15:42.051Z,22.73
2017-09-24T08:18:09.626Z,27.40
2017-09-24T08:20:37.224Z,26.37
2017-09-24T08:23:05.563Z,21.23
2017-09-24T08:25:33.156Z,25.30
2017-09-24T08:28:02.735Z,19.23
2017-09-24T08:30:30.328Z,23.77
2017-09-24T08:32:57.979Z,28.23
2017-09-24T08:35:25.572Z,20.47
2017-09-24T08:37:53.914Z,17.90
2017-09-24T08:40:21.509Z,17.33
2017-09-24T08:42:49.844Z,16.33
2017-09-24T08:45:17.445Z,16.07
2017-09-24T08:47:46.760Z,16.50
2017-09-24T08:50:14.356Z,18.50
2017-09-24T08:52:41.924Z,16.60
2017-09-24T08:55:09.616Z,17.20
2017-09-24T08:57:37.276Z,12.93
2017-09-24T09:00:04.868Z,16.40
2017-09-24T09:02:32.431Z,25.20
2017-09-24T09:05:00.020Z,15.43
2017-09-24T09:07:27.592Z,13.53
2017-09-24T09:09:55.176Z,11.47
2017-09-24T09:12:22.747Z,11.33
2017-09-24T09:14:51.076Z,11.20
2017-09-24T09:17:18.668Z,10.53
2017-09-24T09:19:47.748Z,11.20
2017-09-24T09:22:15.349Z,11.40
2017-09-24T09:24:43.717Z,10.90
2017-09-24T09:27:11.307Z,10.00
2017-09-24T09:29:38.868Z,6.97
2017-09-24T09:32:06.460Z,6.33
2017-09-24T09:34:34.033Z,8.30
2017-09-24T09:37:03.124Z,7.10
2017-09-24T09:39:30.692Z,7.80
2017-09-24T09:41:58.372Z,7.80
2017-09-24T09:44:37.916Z,6.73
2017-09-24T09:47:17.179Z,6.00
2017-09-24T09:49:45.513Z,5.47
2017-09-24T09:52:13.112Z,23.15
2017-09-24T09:54:41.450Z,29.10
2017-09-24T09:57:09.048Z,17.20
2017-09-24T09:59:37.408Z,12.50
2017-09-24T10:02:06.504Z,19.63
2017-09-24T10:04:34.105Z,16.03
2017-09-24T10:07:15.552Z,11.70
2017-09-24T10:12:44.479Z,8.10
2017-09-24T10:15:12.812Z,9.65
2017-09-24T10:17:40.421Z,22.03
2017-09-24T10:20:08.751Z,13.20
2017-09-24T10:22:36.315Z,6.60
2017-09-24T10:25:04.012Z,5.10
2017-09-24T10:27:31.667Z,7.60
2017-09-24T10:30:11.048Z,11.37
2017-09-24T10:32:38.613Z,6.90
2017-09-24T10:35:06.209Z,11.05
2017-09-24T10:37:33.771Z,5.83
2017-09-24T10:40:03.797Z,8.65
2017-09-24T10:42:31.467Z,14.10
2017-09-24T10:44:59.053Z,17.30
2017-09-24T10:47:27.392Z,12.93
2017-09-24T10:49:55.081Z,10.27
2017-09-24T10:52:23.456Z,11.83
2017-09-24T10:54:51.049Z,3.83
2017-09-24T10:57:18.616Z,4.05
2017-09-24T10:59:46.199Z,2.40
2017-09-24T11:02:13.773Z,2.63
2017-09-24T11:04:41.465Z,11.17
2017-09-24T11:07:09.309Z,18.30
2017-09-24T11:09:36.900Z,10.98
2017-09-24T11:12:05.244Z,9.60
2017-09-24T11:14:32.919Z,1.90
2017-09-24T11:17:01.016Z,10.25
2017-09-24T11:19:29.372Z,3.33
2017-09-24T11:21:57.039Z,10.80
2017-09-24T11:24:25.421Z,8.90
2017-09-24T11:26:52.988Z,12.97
2017-09-24T11:29:20.644Z,8.05
2017-09-24T11:31:48.977Z,6.17
2017-09-24T11:34:16.683Z,6.00
2017-09-24T11:36:44.252Z,4.03
2017-09-24T11:39:11.819Z,5.07
2017-09-24T11:41:40.186Z,5.07
2017-09-24T11:44:07.756Z,7.20
2017-09-24T11:46:35.433Z,6.40
2017-09-24T11:49:04.208Z,2.47
2017-09-24T11:51:31.799Z,2.10
2017-09-24T11:53:59.363Z,3.03
2017-09-24T11:56:26.948Z,2.23
2017-09-24T11:58:54.513Z,2.80
2017-09-24T12:01:22.208Z,1.87
2017-09-24T12:03:49.771Z,2.00
2017-09-24T12:06:17.397Z,7.40
2017-09-24T12:08:44.988Z,2.57
2017-09-24T12:11:12.648Z,2.78
2017-09-24T12:13:40.219Z,7.27
2017-09-24T12:16:07.811Z,4.90
2017-09-24T12:18:35.382Z,3.23
2017-09-24T12:21:03.856Z,3.67
2017-09-24T12:23:31.419Z,4.20
2017-09-24T12:25:59.009Z,3.07
2017-09-24T12:28:26.595Z,5.43
2017-09-24T12:30:54.181Z,3.47
2017-09-24T12:33:22.512Z,4.93
2017-09-24T12:35:50.099Z,3.00
2017-09-24T12:38:17.689Z,4.20
2017-09-24T12:40:46.060Z,3.27
2017-09-24T12:43:14.397Z,5.22
2017-09-24T12:45:41.959Z,3.83
2017-09-24T12:48:09.548Z,3.00
2017-09-24T12:50:37.880Z,3.60
2017-09-24T12:53:05.476Z,3.63
2017-09-24T12:55:33.040Z,4.20
2017-09-24T12:58:02.241Z,3.45
2017-09-24T13:00:29.813Z,4.50
2017-09-24T13:02:58.176Z,3.83
2017-09-24T13:05:25.736Z,5.97
2017-09-24T13:07:53.319Z,4.00
2017-09-24T13:10:21.656Z,4.80
2017-09-24T13:12:49.331Z,5.67
2017-09-24T13:15:16.908Z,6.25
2017-09-24T13:17:45.264Z,7.73
2017-09-24T13:20:12.824Z,4.60
2017-09-24T13:22:40.412Z,5.30
2017-09-24T13:25:08.749Z,4.57
2017-09-24T13:27:36.340Z,4.07
2017-09-24T13:30:03.921Z,5.40
2017-09-24T13:32:32.272Z,5.77
2017-09-24T13:34:59.832Z,8.40
2017-09-24T13:37:27.443Z,5.07
2017-09-24T13:39:55.012Z,5.97
2017-09-24T13:42:22.580Z,6.20
2017-09-24T13:44:50.174Z,5.50
2017-09-24T13:47:17.748Z,8.00
2017-09-24T13:49:45.344Z,6.10
2017-09-24T13:52:12.936Z,7.47
2017-09-24T13:54:40.632Z,5.73
2017-09-24T13:57:08.196Z,8.82
2017-09-24T13:59:36.548Z,12.10
2017-09-24T14:02:04.107Z,9.82
2017-09-24T14:04:31.700Z,11.47
2017-09-24T14:06:59.276Z,12.30
2017-09-24T14:09:27.731Z,14.23
2017-09-24T14:11:55.300Z,14.90
2017-09-24T14:14:22.900Z,14.67
2017-09-24T14:16:50.478Z,14.97
2017-09-24T14:19:18.080Z,13.60
2017-09-24T14:21:45.651Z,17.43
2017-09-24T14:24:14.013Z,15.67
2017-09-24T14:26:41.684Z,15.83
2017-09-24T14:29:09.279Z,18.45
2017-09-24T14:31:36.900Z,16.50
2017-09-24T14:34:04.495Z,15.83
2017-09-24T14:36:32.828Z,20.00
2017-09-24T14:39:02.089Z,19.20
2017-09-24T14:41:29.657Z,14.37
2017-09-24T14:43:57.296Z,12.98
2017-09-24T14:46:25.723Z,13.95
2017-09-24T14:48:53.321Z,13.60
2017-09-24T14:51:22.559Z,18.02
2017-09-24T14:53:50.148Z,17.73
2017-09-24T14:56:17.720Z,16.67
2017-09-24T14:58:45.335Z,20.80
2017-09-24T15:01:12.905Z,15.60
2017-09-24T15:03:40.475Z,16.57
2017-09-24T15:06:08.085Z,16.83
2017-09-24T15:08:36.429Z,17.90
2017-09-24T15:11:04.836Z,17.80
2017-09-24T15:13:33.168Z,18.87
2017-09-24T15:16:01.943Z,16.83
2017-09-24T15:18:29.543Z,22.97
2017-09-24T15:20:57.158Z,16.70
2017-09-24T15:23:24.761Z,16.93
2017-09-24T15:25:52.440Z,16.20
2017-09-24T15:28:20.009Z,14.05
2017-09-24T15:30:47.599Z,13.97
2017-09-24T15:33:15.252Z,16.17
2017-09-24T15:35:43.898Z,14.00
2017-09-24T15:38:11.472Z,15.18
2017-09-24T15:40:39.068Z,16.97
2017-09-24T15:43:06.677Z,16.20
2017-09-24T15:45:34.292Z,15.53
2017-09-24T15:48:02.714Z,17.60
2017-09-24T15:50:30.288Z,25.90
2017-09-24T15:52:57.883Z,17.37
2017-09-24T15:55:26.216Z,19.33
2017-09-24T15:57:53.904Z,17.17
2017-09-24T16:00:21.480Z,15.80
2017-09-24T16:02:49.832Z,19.13
2017-09-24T16:05:17.404Z,13.50
2017-09-24T16:07:45.760Z,14.80
2017-09-24T16:10:13.325Z,17.45
2017-09-24T16:12:40.920Z,16.83
2017-09-24T16:15:09.279Z,18.40
2017-09-24T16:17:36.872Z,15.45
2017-09-24T16:20:04.447Z,13.57
2017-09-24T16:22:32.048Z,13.97
2017-09-24T16:24:59.611Z,15.77
2017-09-24T16:27:27.197Z,14.37
2017-09-24T16:29:55.607Z,11.57
2017-09-24T16:32:23.205Z,12.83
2017-09-24T16:34:50.792Z,12.40
2017-09-24T16:37:18.447Z,14.32
2017-09-24T16:39:46.008Z,12.57
2017-09-24T16:42:13.599Z,13.20
2017-09-24T16:44:41.933Z,18.80
2017-09-24T16:47:09.532Z,18.27
2017-09-24T16:49:37.871Z,20.10
2017-09-24T16:52:05.495Z,20.50
2017-09-24T16:54:33.067Z,23.93
2017-09-24T16:57:02.797Z,29.17
2017-09-24T16:59:30.829Z,35.87
2017-09-24T17:01:58.400Z,36.37
2017-09-24T17:04:25.988Z,34.43
2017-09-24T17:06:53.619Z,31.50
2017-09-24T17:09:21.210Z,38.70
2017-09-24T17:11:48.784Z,43.53
2017-09-24T17:14:16.375Z,32.30
2017-09-24T17:16:44.741Z,46.77
2017-09-24T17:19:12.404Z,53.63
2017-09-24T17:21:39.975Z,38.20
2017-09-24T17:24:08.340Z,46.13
2017-09-24T17:26:36.000Z,52.40
2017-09-24T17:29:04.792Z,48.37
2017-09-24T17:31:32.365Z,76.90
2017-09-24T17:34:01.648Z,74.80
2017-09-24T17:36:29.219Z,105.73
2017-09-24T17:38:56.816Z,114.50
2017-09-24T17:41:24.389Z,105.27
2017-09-24T17:43:51.992Z,91.30
2017-09-24T17:46:19.565Z,86.20
2017-09-24T17:48:47.160Z,112.83
2017-09-24T17:51:14.739Z,120.45
2017-09-24T17:53:42.328Z,84.57
2017-09-24T17:56:09.908Z,86.12
2017-09-24T17:58:37.504Z,124.37
2017-09-24T18:01:05.080Z,118.73
2017-09-24T18:03:32.696Z,104.57
2017-09-24T18:06:01.956Z,61.63
2017-09-24T18:08:29.528Z,55.10
2017-09-24T18:10:57.208Z,61.70
2017-09-24T18:13:25.588Z,48.97
2017-09-24T18:15:54.693Z,58.37
2017-09-24T18:18:22.356Z,62.00
2017-09-24T18:20:49.949Z,47.60
2017-09-24T18:23:17.553Z,60.17
2017-09-24T18:25:45.160Z,51.80
2017-09-24T18:28:13.501Z,59.03
2017-09-24T18:30:41.107Z,54.25
2017-09-24T18:33:08.680Z,56.80
2017-09-24T18:35:36.276Z,47.83
2017-09-24T18:38:04.140Z,53.17
2017-09-24T18:40:31.734Z,49.37
2017-09-24T18:43:00.996Z,45.43
2017-09-24T18:45:29.082Z,61.90
2017-09-24T18:47:56.661Z,52.27
2017-09-24T18:50:24.252Z,51.63
2017-09-24T18:52:51.875Z,53.00
2017-09-24T18:55:19.724Z,51.90
2017-09-24T18:57:47.292Z,55.20
2017-09-24T19:00:14.973Z,61.10
2017-09-24T19:02:42.548Z,52.97
2017-09-24T19:05:10.912Z,66.87
2017-09-24T19:07:38.475Z,46.23
2017-09-24T19:10:06.831Z,58.65
2017-09-24T19:12:34.429Z,91.63
2017-09-24T19:15:03.698Z,101.33
2017-09-24T19:17:31.300Z,96.13
2017-09-24T19:19:59.652Z,119.70
2017-09-24T19:22:27.252Z,209.17
2017-09-24T19:24:54.829Z,71.80
2017-09-24T19:27:22.428Z,76.20
2017-09-24T19:29:50.000Z,118.40
2017-09-24T19:32:17.596Z,55.47
2017-09-24T19:34:45.160Z,58.00
2017-09-24T19:37:12.757Z,54.33
2017-09-24T19:39:40.333Z,56.20
2017-09-24T19:42:07.930Z,68.46
2017-09-24T19:44:35.541Z,72.60
2017-09-24T19:47:04.774Z,67.28
2017-09-24T19:49:33.112Z,67.47
2017-09-24T19:52:02.764Z,67.87
2017-09-24T19:54:31.100Z,56.60
2017-09-24T19:56:58.671Z,53.20
2017-09-24T19:59:26.270Z,51.33
2017-09-24T20:01:53.843Z,40.20
2017-09-24T20:04:21.496Z,44.37
2017-09-24T20:06:49.853Z,45.15
2017-09-24T20:09:17.517Z,39.75
2017-09-24T20:11:45.887Z,35.33
2017-09-24T20:14:13.489Z,39.40
2017-09-24T20:16:41.175Z,40.90
2017-09-24T20:19:08.800Z,36.50
2017-09-24T20:21:37.136Z,37.13
2017-09-24T20:24:04.824Z,46.53
2017-09-24T20:26:32.392Z,52.07
2017-09-24T20:29:01.816Z,51.10
2017-09-24T20:31:29.447Z,49.00
2017-09-24T20:33:57.812Z,44.23
2017-09-24T20:36:25.389Z,50.30
2017-09-24T20:38:53.043Z,57.17
2017-09-24T20:41:20.611Z,55.05
2017-09-24T20:43:48.185Z,49.07
2017-09-24T20:46:16.652Z,55.72
2017-09-24T20:48:44.321Z,54.13
2017-09-24T20:51:11.971Z,52.42
2017-09-24T20:53:39.549Z,49.10
2017-09-24T20:56:07.919Z,52.05
2017-09-24T20:58:35.579Z,49.23
2017-09-24T21:01:04.788Z,46.87
2017-09-24T21:03:33.132Z,44.33
2017-09-24T21:06:01.656Z,42.47
2017-09-24T21:08:30.008Z,48.90
2017-09-24T21:10:57.608Z,45.50
2017-09-24T21:13:25.217Z,44.90
2017-09-24T21:15:53.008Z,39.60
2017-09-24T21:18:21.392Z,36.85
2017-09-24T21:20:48.964Z,46.13
2017-09-24T21:23:17.456Z,39.60
2017-09-24T21:25:45.192Z,41.43
2017-09-24T21:28:12.784Z,40.47
2017-09-24T21:30:41.112Z,40.90
2017-09-24T21:33:08.806Z,43.57
2017-09-24T21:35:37.176Z,47.07
2017-09-24T21:38:04.773Z,43.87
2017-09-24T21:40:32.340Z,39.63
2017-09-24T21:43:01.624Z,53.70
2017-09-24T21:45:30.306Z,44.30
2017-09-24T21:47:58.664Z,38.00
2017-09-24T21:50:26.232Z,44.30
2017-09-24T21:52:54.588Z,44.00
2017-09-24T21:55:22.156Z,43.13
2017-09-24T21:57:49.751Z,40.40
2017-09-24T22:00:18.110Z,40.50
2017-09-24T22:02:45.708Z,41.20
2017-09-24T22:05:13.283Z,49.57
2017-09-24T22:07:40.914Z,49.13
2017-09-24T22:10:09.256Z,50.53
2017-09-24T22:12:36.849Z,43.00
2017-09-24T22:15:05.189Z,52.30
2017-09-24T22:17:32.788Z,47.50
2017-09-24T22:20:02.788Z,49.55
2017-09-24T22:22:30.397Z,39.93
2017-09-24T22:24:57.961Z,47.33
2017-09-24T22:27:25.540Z,37.17
2017-09-24T22:29:53.224Z,39.20
2017-09-24T22:32:20.804Z,35.03
2017-09-24T22:34:49.167Z,40.60
2017-09-24T22:37:16.740Z,38.60
2017-09-24T22:39:45.105Z,34.50
2017-09-24T22:42:12.676Z,35.13
2017-09-24T22:44:40.270Z,38.93
2017-09-24T22:47:07.844Z,33.92
2017-09-24T22:49:35.436Z,43.00
2017-09-24T22:52:03.812Z,45.37
2017-09-24T22:54:31.400Z,45.87
2017-09-24T22:56:58.976Z,37.27
2017-09-24T22:59:27.440Z,41.07
2017-09-24T23:01:55.016Z,39.65
2017-09-24T23:04:23.477Z,45.10
2017-09-24T23:06:51.044Z,39.50
2017-09-24T23:09:18.646Z,37.83
2017-09-24T23:11:46.214Z,49.37
2017-09-24T23:14:13.813Z,42.80
2017-09-24T23:16:41.388Z,42.87
2017-09-24T23:19:09.005Z,40.78
2017-09-24T23:21:36.576Z,34.13
2017-09-24T23:24:04.152Z,39.30
2017-09-24T23:26:31.744Z,39.00
2017-09-24T23:29:00.109Z,33.83
2017-09-24T23:31:27.765Z,36.83
2017-09-24T23:33:55.793Z,37.37
2017-09-24T23:36:23.392Z,34.30
2017-09-24T23:38:51.060Z,37.35
2017-09-24T23:41:18.655Z,30.63
2017-09-24T23:43:46.220Z,33.83
2017-09-24T23:46:13.816Z,32.28
2017-09-24T23:48:41.692Z,36.07
2017-09-24T23:51:09.285Z,39.60
2017-09-24T23:53:37.653Z,42.77
2017-09-24T23:56:06.013Z,38.70
2017-09-24T23:58:33.691Z,34.07
